Time;durP1;ratioP1;P1;durP2;ratioP2;P2;SDS_P1;SDS_P2;PMS_P1;PMS_P2;Temp;Humidity;BMP_temperature;BMP_pressure;BME280_temperature;BME280_humidity;BME280_pressure;Samples;Min_cycle;Max_cycle;Signal;HPM_P1;HPM_P2
2021/07/23 00:00:05;;;;;;;17.20;10.70;;;;;;;16.61;85.14;99336.91;4310819;81;21096;-83
2021/07/23 00:06:08;;;;;;;19.98;10.43;;;;;;;16.43;85.43;99336.22;4267174;81;21586;-83
2021/07/23 00:12:10;;;;;;;17.17;10.85;;;;;;;16.47;86.12;99335.64;4260695;81;21034;-83
2021/07/23 00:18:11;;;;;;;16.57;10.70;;;;;;;16.62;86.16;99328.01;4257518;81;21085;-84
2021/07/23 00:24:14;;;;;;;15.83;10.40;;;;;;;16.54;85.87;99327.28;4265425;81;21762;-82
2021/07/23 00:30:17;;;;;;;19.55;10.20;;;;;;;16.47;86.51;99323.20;4299544;81;21067;-83
2021/07/23 00:36:18;;;;;;;15.85;10.23;;;;;;;16.47;86.80;99326.55;4295873;81;21099;-83
2021/07/23 00:42:19;;;;;;;16.97;10.45;;;;;;;16.51;86.82;99331.45;4320726;81;21413;-84
2021/07/23 00:48:23;;;;;;;18.45;10.38;;;;;;;16.53;86.92;99340.13;4292904;81;21039;-84
2021/07/23 00:54:27;;;;;;;21.40;10.68;;;;;;;16.58;87.27;99335.55;4314756;81;21039;-83
2021/07/23 01:00:31;;;;;;;17.42;9.95;;;;;;;16.61;86.90;99334.73;4300828;81;21584;-83
2021/07/23 01:06:36;;;;;;;18.00;11.33;;;;;;;16.45;87.25;99325.58;4273099;81;21057;-83
2021/07/23 01:12:40;;;;;;;15.28;10.23;;;;;;;16.54;87.47;99322.34;4279764;81;21547;-84
2021/07/23 01:18:47;;;;;;;15.35;10.60;;;;;;;16.55;87.43;99321.17;4288980;81;21567;-84
2021/07/23 01:24:52;;;;;;;23.18;9.83;;;;;;;16.43;87.41;99321.60;4293872;81;21051;-83
2021/07/23 01:30:58;;;;;;;24.43;10.80;;;;;;;16.47;87.96;99319.06;4279105;81;21033;-84
2021/07/23 01:37:02;;;;;;;17.25;10.18;;;;;;;16.50;87.93;99311.34;4295489;81;21035;-83
2021/07/23 01:43:03;;;;;;;17.17;10.65;;;;;;;16.42;87.85;99315.31;4264225;81;21060;-84
2021/07/23 01:49:04;;;;;;;17.62;10.55;;;;;;;16.40;88.46;99318.27;4273190;81;21671;-84
2021/07/23 01:55:12;;;;;;;14.73;10.63;;;;;;;16.47;88.58;99309.98;4327239;81;21083;-83
2021/07/23 02:01:20;;;;;;;15.45;10.10;;;;;;;16.47;88.50;99306.63;4312404;81;21079;-83
2021/07/23 02:07:23;;;;;;;17.42;9.78;;;;;;;16.51;88.64;99307.37;4278333;80;22176;-84
2021/07/23 02:13:28;;;;;;;15.93;9.73;;;;;;;16.46;88.91;99304.27;4200086;82;21096;-84
2021/07/23 02:19:30;;;;;;;20.43;9.98;;;;;;;16.51;89.04;99298.28;4312118;81;21004;-83
2021/07/23 02:25:34;;;;;;;16.57;10.35;;;;;;;16.50;89.01;99300.87;4323784;80;21070;-83
2021/07/23 02:31:40;;;;;;;19.70;10.85;;;;;;;16.55;89.16;99299.83;4295081;81;21511;-83
2021/07/23 02:37:44;;;;;;;15.10;9.83;;;;;;;16.61;89.17;99301.57;4320742;81;21051;-83
2021/07/23 02:43:49;;;;;;;15.83;10.13;;;;;;;16.58;89.25;99286.60;4282121;81;21023;-84
2021/07/23 02:49:50;;;;;;;14.78;10.28;;;;;;;16.49;89.16;99287.64;4264079;81;21009;-83
2021/07/23 02:55:54;;;;;;;13.98;10.63;;;;;;;16.47;89.49;99292.02;4312010;81;21067;-85
2021/07/23 03:01:56;;;;;;;15.50;10.40;;;;;;;16.41;89.64;99283.33;4292445;81;21031;-84
2021/07/23 03:08:02;;;;;;;15.63;11.53;;;;;;;16.41;89.77;99281.95;4284986;81;21725;-84
2021/07/23 03:14:06;;;;;;;17.62;10.90;;;;;;;16.34;89.74;99277.08;4315914;81;22335;-83
2021/07/23 03:20:11;;;;;;;20.40;10.50;;;;;;;16.30;90.03;99277.71;4303961;81;21054;-84
2021/07/23 03:26:21;;;;;;;13.90;10.03;;;;;;;16.38;90.33;99273.70;4286754;81;21127;-82
2021/07/23 03:32:25;;;;;;;16.23;11.25;;;;;;;16.40;90.24;99269.34;4297770;81;21063;-83
2021/07/23 03:38:26;;;;;;;17.73;10.40;;;;;;;16.37;90.31;99279.02;4309504;81;21019;-83
2021/07/23 03:44:33;;;;;;;16.42;10.32;;;;;;;16.31;90.30;99270.98;4302344;81;21037;-83
2021/07/23 03:50:36;;;;;;;16.37;10.40;;;;;;;16.26;90.61;99268.65;4303324;81;39284;-83
2021/07/23 03:56:38;;;;;;;14.00;10.18;;;;;;;16.28;90.65;99282.84;4312762;81;22063;-84
2021/07/23 04:02:40;;;;;;;18.75;10.65;;;;;;;16.28;90.85;99280.09;4324367;80;21039;-83
2021/07/23 04:15:36;;;;;;;17.60;9.98;;;;;;;16.40;91.15;99285.12;4186307;83;21858;-84
2021/07/23 04:21:46;;;;;;;18.27;9.68;;;;;;;16.34;90.79;99273.73;4254005;81;21017;-82
2021/07/23 04:27:55;;;;;;;17.17;10.05;;;;;;;16.35;91.26;99282.20;4142778;83;21082;-83
2021/07/23 04:33:59;;;;;;;21.57;9.35;;;;;;;16.45;91.17;99276.43;4211647;83;21045;-84
2021/07/23 04:40:14;;;;;;;20.45;10.25;;;;;;;16.45;91.21;99270.91;4270292;81;21093;-84
2021/07/23 04:46:17;;;;;;;17.32;10.45;;;;;;;16.48;91.40;99266.73;4261198;81;21384;-83
2021/07/23 04:52:32;;;;;;;13.28;9.30;;;;;;;16.62;91.50;99262.47;4329180;80;20995;-83
2021/07/23 04:58:54;;;;;;;17.40;9.35;;;;;;;16.68;91.63;99256.69;4170286;83;21057;-82
2021/07/23 05:04:55;;;;;;;13.90;9.50;;;;;;;16.79;91.57;99250.45;4264344;81;21046;-84
2021/07/23 05:10:57;;;;;;;13.30;9.30;;;;;;;16.85;91.54;99248.81;4200876;83;21012;-84
2021/07/23 05:17:00;;;;;;;14.43;9.60;;;;;;;16.92;91.48;99243.81;4239136;82;21524;-83
2021/07/23 05:23:03;;;;;;;16.77;10.30;;;;;;;16.98;91.26;99246.31;4216575;82;21579;-85
2021/07/23 05:29:07;;;;;;;11.97;9.08;;;;;;;17.08;91.50;99237.92;4229706;82;21098;-84
2021/07/23 05:35:10;;;;;;;12.75;9.43;;;;;;;17.16;91.42;99249.69;4181032;82;21083;-84
2021/07/23 05:41:18;;;;;;;22.75;11.53;;;;;;;17.27;91.16;99250.35;4191449;82;21665;-84
2021/07/23 05:47:19;;;;;;;13.93;9.45;;;;;;;17.41;91.09;99247.41;4200753;83;21581;-84
2021/07/23 05:53:26;;;;;;;16.93;9.45;;;;;;;17.60;91.07;99247.40;4206628;82;22369;-84
2021/07/23 05:59:27;;;;;;;16.65;11.03;;;;;;;17.82;90.71;99246.68;4236458;81;21352;-84
2021/07/23 06:05:29;;;;;;;18.87;11.40;;;;;;;18.01;90.41;99238.33;4242050;81;21641;-84
2021/07/23 06:11:43;;;;;;;15.55;11.30;;;;;;;18.15;90.29;99230.56;4248209;81;21052;-85
2021/07/23 06:17:44;;;;;;;17.85;11.30;;;;;;;18.37;90.07;99244.89;4187452;83;21035;-84
2021/07/23 06:23:47;;;;;;;18.02;11.08;;;;;;;18.40;89.15;99237.91;4187377;83;21050;-84
2021/07/23 06:29:55;;;;;;;14.87;10.03;;;;;;;18.49;89.12;99235.99;4209963;83;21099;-84
2021/07/23 06:35:57;;;;;;;17.98;12.18;;;;;;;18.68;89.27;99240.82;4292830;80;21114;-84
2021/07/23 06:42:09;;;;;;;16.48;9.90;;;;;;;19.00;89.13;99245.77;4354721;81;21023;-83
2021/07/23 06:48:24;;;;;;;16.82;11.22;;;;;;;19.16;88.10;99243.88;4272388;81;21141;-84
2021/07/23 07:01:10;;;;;;;13.48;9.38;;;;;;;19.48;87.18;99238.48;4295053;80;21057;-84
2021/07/23 07:07:16;;;;;;;22.05;11.63;;;;;;;19.83;87.11;99243.28;4314721;81;21611;-85
2021/07/23 07:13:21;;;;;;;13.10;9.90;;;;;;;19.94;85.62;99231.33;4342656;80;21098;-84
2021/07/23 07:19:23;;;;;;;18.60;10.82;;;;;;;20.17;84.62;99235.38;4350628;80;21031;-85
2021/07/23 07:25:26;;;;;;;12.82;9.00;;;;;;;20.40;84.49;99234.44;4304859;80;21032;-84
2021/07/23 07:31:29;;;;;;;16.50;10.28;;;;;;;20.77;85.04;99230.31;4304778;80;21063;-84
2021/07/23 07:37:31;;;;;;;12.90;9.88;;;;;;;21.27;83.12;99241.09;4309374;80;21061;-84
2021/07/23 07:43:32;;;;;;;16.00;8.83;;;;;;;21.65;82.70;99230.84;4325051;81;21052;-84
2021/07/23 07:49:33;;;;;;;10.45;8.30;;;;;;;21.68;80.27;99231.34;4329076;81;21081;-83
2021/07/23 07:55:35;;;;;;;14.38;7.92;;;;;;;21.59;77.39;99231.83;4330032;80;21027;-84
2021/07/23 08:01:38;;;;;;;10.20;7.33;;;;;;;21.77;77.27;99229.94;4319098;80;21039;-83
2021/07/23 08:07:40;;;;;;;11.28;7.78;;;;;;;22.11;74.79;99221.70;4303396;80;21063;-85
2021/07/23 08:13:41;;;;;;;10.50;7.37;;;;;;;21.94;72.44;99221.64;4304601;80;21030;-84
2021/07/23 08:19:42;;;;;;;7.40;6.50;;;;;;;22.34;74.28;99217.95;4334994;81;21630;-84
2021/07/23 08:25:44;;;;;;;9.75;6.35;;;;;;;22.70;74.30;99212.77;4342163;80;21069;-84
2021/07/23 08:31:45;;;;;;;9.13;6.75;;;;;;;22.82;73.78;99216.73;4330139;81;20980;-83
2021/07/23 08:37:46;;;;;;;6.92;5.75;;;;;;;22.98;73.09;99213.78;4328923;80;22004;-83
2021/07/23 08:43:48;;;;;;;11.15;6.62;;;;;;;23.03;72.85;99215.39;4327807;81;20995;-84
2021/07/23 08:49:52;;;;;;;8.25;6.20;;;;;;;23.12;72.18;99218.25;4316641;80;21097;-84
2021/07/23 08:55:55;;;;;;;10.40;6.72;;;;;;;23.15;71.47;99212.36;4329312;81;21122;-84
2021/07/23 09:02:01;;;;;;;10.15;6.25;;;;;;;23.12;71.16;99210.48;4340395;80;21062;-83
2021/07/23 09:08:18;;;;;;;13.35;6.42;;;;;;;23.26;71.09;99204.41;4316637;80;22392;-83
2021/07/23 09:14:23;;;;;;;7.08;5.05;;;;;;;23.50;69.93;99199.92;4268557;81;21050;-84
2021/07/23 09:20:28;;;;;;;8.00;4.95;;;;;;;23.64;68.90;99203.57;4250713;82;21548;-83
2021/07/23 09:26:44;;;;;;;6.30;5.45;;;;;;;23.86;65.83;99198.72;4204413;82;21823;-84
2021/07/23 09:39:39;;;;;;;9.63;5.92;;;;;;;24.18;62.40;99189.84;4035322;85;21113;-83
2021/07/23 09:45:40;;;;;;;7.10;5.70;;;;;;;24.36;64.47;99189.91;4048847;86;21043;-82
2021/07/23 09:51:42;;;;;;;11.68;5.87;;;;;;;24.31;64.42;99186.93;4054523;86;21150;-83
2021/07/23 09:57:48;;;;;;;7.37;5.42;;;;;;;24.35;63.92;99188.98;4102154;81;21075;-82
2021/07/23 10:03:53;;;;;;;9.23;5.67;;;;;;;25.08;62.91;99174.43;4320158;81;21601;-83
2021/07/23 10:09:58;;;;;;;6.60;5.08;;;;;;;25.80;62.52;99171.50;4320844;80;21022;-82
2021/07/23 10:15:59;;;;;;;8.25;4.95;;;;;;;26.21;60.95;99163.70;4316937;80;21035;-80
2021/07/23 10:22:02;;;;;;;7.30;5.15;;;;;;;26.47;60.77;99161.98;4296104;80;21026;-80
2021/07/23 10:28:03;;;;;;;8.15;5.17;;;;;;;26.46;60.03;99160.44;4341279;80;21536;-78
2021/07/23 10:34:23;;;;;;;6.97;5.53;;;;;;;26.56;58.30;99145.72;4327472;80;21590;-80
2021/07/23 10:40:40;;;;;;;9.50;5.45;;;;;;;26.74;58.04;99138.57;4331874;80;21056;-79
2021/07/23 10:46:47;;;;;;;;;;;;;;;26.79;56.44;99133.08;4336807;80;21613;-80
2021/07/23 10:52:49;;;;;;;7.62;5.08;;;;;;;26.82;55.98;99126.50;4330969;80;20496;-82
2021/07/23 10:58:50;;;;;;;6.60;5.53;;;;;;;26.89;55.21;99119.73;4292083;81;22231;-81
2021/07/23 11:05:12;;;;;;;7.62;5.50;;;;;;;26.64;52.55;99121.02;4349945;80;21027;-81
2021/07/23 11:11:14;;;;;;;8.53;4.53;;;;;;;26.14;53.47;99120.56;4297055;81;21030;-80
2021/07/23 11:17:15;;;;;;;6.40;5.00;;;;;;;26.40;53.66;99104.81;4320137;80;21029;-81
2021/07/23 11:23:17;;;;;;;6.22;4.53;;;;;;;26.27;54.36;99115.50;4333554;80;20983;-80
2021/07/23 11:36:09;;;;;;;7.00;4.67;;;;;;;26.49;52.19;99104.74;4324323;80;21622;-83
2021/07/23 11:42:10;;;;;;;6.83;4.45;;;;;;;26.76;52.34;99093.33;4342528;80;21038;-84
2021/07/23 11:48:13;;;;;;;6.08;5.00;;;;;;;26.82;52.40;99092.80;4318738;80;21010;-82
2021/07/23 11:54:19;;;;;;;9.78;4.62;;;;;;;27.12;52.70;99090.78;4309254;80;21420;-82
2021/07/23 12:00:27;;;;;;;;;;;;;;;27.24;52.20;99089.09;4280784;80;21083;-82
2021/07/23 12:06:32;;;;;;;8.48;5.22;;;;;;;26.97;50.74;99082.34;4320457;80;20208;-82
2021/07/23 12:12:36;;;;;;;7.43;4.90;;;;;;;26.69;51.46;99086.66;4239053;81;21533;-82
2021/07/23 12:18:37;;;;;;;7.55;5.28;;;;;;;26.62;50.56;99080.00;4246011;81;30505;-82
2021/07/23 12:24:38;;;;;;;6.45;5.65;;;;;;;26.60;50.99;99081.72;4225550;82;21089;-82
2021/07/23 12:30:47;;;;;;;6.42;4.90;;;;;;;26.45;47.14;99072.50;4237632;82;21034;-83
2021/07/23 12:36:55;;;;;;;6.90;4.78;;;;;;;26.21;48.06;99071.12;4206869;83;21585;-81
2021/07/23 12:43:12;;;;;;;9.18;5.05;;;;;;;26.29;48.73;99068.10;4232344;82;21550;-83
2021/07/23 12:49:21;;;;;;;8.40;5.12;;;;;;;26.17;48.88;99067.70;4232154;81;21617;-82
2021/07/23 12:55:23;;;;;;;8.23;4.95;;;;;;;26.07;49.00;99058.59;4223537;82;21081;-82
2021/07/23 13:01:24;;;;;;;5.83;5.22;;;;;;;25.98;48.46;99058.60;4222336;81;21010;-83
2021/07/23 13:07:25;;;;;;;7.55;5.28;;;;;;;25.63;48.13;99060.98;4246012;81;21027;-83
2021/07/23 13:13:27;;;;;;;6.62;5.75;;;;;;;25.45;48.64;99052.67;4257031;82;21666;-81
2021/07/23 13:19:30;;;;;;;6.85;5.70;;;;;;;25.27;49.14;99058.30;4235580;82;21005;-82
2021/07/23 13:25:34;;;;;;;7.65;6.08;;;;;;;25.00;49.90;99059.16;4230749;81;21098;-83
2021/07/23 13:31:35;;;;;;;8.10;5.50;;;;;;;24.98;50.50;99049.69;4256363;82;22037;-82
2021/07/23 13:37:41;;;;;;;7.80;5.35;;;;;;;24.94;51.59;99051.23;4234938;81;21642;-82
2021/07/23 13:43:41;;;;;;;6.50;5.45;;;;;;;24.70;51.64;99023.74;4244433;81;21055;-84
2021/07/23 13:49:43;;;;;;;7.15;5.55;;;;;;;24.76;52.08;99044.91;4242594;82;21047;-82
2021/07/23 13:55:44;;;;;;;6.45;5.15;;;;;;;24.75;52.04;99030.73;4256387;81;21113;-81
2021/07/23 14:01:48;;;;;;;6.53;5.40;;;;;;;24.55;51.46;99011.00;4223151;81;21528;-82
2021/07/23 14:07:52;;;;;;;7.35;4.83;;;;;;;24.68;50.66;99019.26;4269331;81;21062;-82
2021/07/23 14:13:56;;;;;;;7.35;5.72;;;;;;;24.49;51.88;99019.84;4225919;82;21042;-82
2021/07/23 14:19:57;;;;;;;6.72;5.22;;;;;;;24.49;51.88;99019.84;4247175;81;21027;-83
2021/07/23 14:26:24;;;;;;;7.67;5.80;;;;;;;24.48;52.23;99035.09;4247863;81;21622;-81
2021/07/23 14:32:25;;;;;;;8.08;5.70;;;;;;;24.38;52.55;99032.77;4254190;82;21510;-82
2021/07/23 14:38:27;;;;;;;10.45;5.65;;;;;;;24.42;51.71;99028.58;4253770;81;21026;-83
2021/07/23 14:44:28;;;;;;;7.30;6.12;;;;;;;24.54;51.86;99019.87;4213399;83;21073;-82
2021/07/23 14:50:29;;;;;;;7.17;5.22;;;;;;;24.52;51.65;99018.91;4238456;81;21062;-82
2021/07/23 14:56:30;;;;;;;8.88;6.22;;;;;;;24.40;52.10;99019.10;4247100;81;21063;-82
2021/07/23 15:02:36;;;;;;;7.47;5.67;;;;;;;24.26;52.91;99021.09;4251896;81;21062;-83
2021/07/23 15:08:37;;;;;;;8.10;5.78;;;;;;;24.03;53.16;99011.92;4216644;82;22281;-84
2021/07/23 15:14:39;;;;;;;8.53;5.90;;;;;;;24.03;53.15;99008.52;4227077;81;21460;-84
2021/07/23 15:20:41;;;;;;;8.25;5.97;;;;;;;23.91;53.00;99008.02;4259695;81;21527;-82
2021/07/23 15:26:42;;;;;;;7.20;5.65;;;;;;;23.91;53.13;99010.81;4235196;81;21049;-82
2021/07/23 15:32:46;;;;;;;7.50;6.08;;;;;;;23.92;53.66;99010.95;4223996;81;21026;-83
2021/07/23 15:45:36;;;;;;;8.85;5.90;;;;;;;23.88;53.60;99006.12;4148875;83;21749;-82
2021/07/23 15:51:37;;;;;;;11.45;6.80;;;;;;;23.80;53.67;99001.31;4117328;84;21616;-84
2021/07/23 15:57:39;;;;;;;6.90;5.65;;;;;;;23.80;53.82;98999.30;4149894;83;21065;-82
2021/07/23 16:03:42;;;;;;;11.05;5.80;;;;;;;23.84;54.13;98996.33;4201477;82;21503;-82
2021/07/23 16:09:44;;;;;;;6.87;6.10;;;;;;;23.89;54.42;98998.52;4192874;82;21082;-83
2021/07/23 16:15:45;;;;;;;10.88;5.92;;;;;;;23.92;54.37;98987.80;4195765;84;21026;-83
2021/07/23 16:21:47;;;;;;;10.30;6.45;;;;;;;23.89;54.24;98984.55;4206332;82;21129;-82
2021/07/23 16:27:49;;;;;;;9.65;5.90;;;;;;;23.79;54.23;98989.34;4211333;83;21397;-82
2021/07/23 16:33:50;;;;;;;8.38;5.75;;;;;;;23.66;54.99;98987.93;4203900;82;21075;-82
2021/07/23 16:39:53;;;;;;;11.88;6.50;;;;;;;23.54;55.17;98986.05;4219202;82;21027;-83
2021/07/23 16:45:56;;;;;;;9.50;6.05;;;;;;;23.42;55.26;98981.34;4199262;82;21024;-82
2021/07/23 16:51:59;;;;;;;8.38;6.33;;;;;;;23.31;55.40;98980.99;4229252;82;21003;-83
2021/07/23 16:58:00;;;;;;;7.33;5.80;;;;;;;23.20;55.83;98985.59;4199688;82;21054;-83
2021/07/23 17:04:02;;;;;;;7.60;5.80;;;;;;;23.14;56.22;98985.42;4094667;82;9999695;-82
2021/07/23 17:10:05;;;;;;;7.28;5.67;;;;;;;23.09;57.18;98990.20;4210434;82;21009;-84
2021/07/23 17:16:09;;;;;;;9.00;6.67;;;;;;;22.96;57.11;98982.53;4194088;84;20992;-82
2021/07/23 17:22:11;;;;;;;12.13;6.55;;;;;;;22.86;57.50;98982.95;4192802;82;21112;-82
2021/07/23 17:28:15;;;;;;;10.78;6.75;;;;;;;22.73;57.79;98983.04;4189430;82;20987;-83
2021/07/23 17:34:16;;;;;;;11.88;7.08;;;;;;;22.60;58.03;98985.13;4209366;82;21107;-84
2021/07/23 17:40:17;;;;;;;10.78;7.12;;;;;;;22.54;58.16;98989.73;4225819;82;21533;-83
2021/07/23 17:46:19;;;;;;;9.80;7.40;;;;;;;22.42;58.39;98987.77;4207233;82;21112;-83
2021/07/23 17:58:43;;;;;;;10.88;7.90;;;;;;;22.19;59.49;98984.02;4538419;77;22950;-81
2021/07/23 18:04:44;;;;;;;11.80;7.70;;;;;;;22.08;60.22;98987.03;4478689;78;21042;-82
2021/07/23 18:10:45;;;;;;;13.13;8.90;;;;;;;22.00;61.13;98984.33;4528302;78;21614;-81
2021/07/23 18:16:47;;;;;;;12.15;7.50;;;;;;;21.93;61.59;98984.56;4463947;78;21043;-82
2021/07/23 18:22:49;;;;;;;11.60;8.23;;;;;;;21.83;62.23;98987.13;4457744;78;20972;-82
2021/07/23 18:28:55;;;;;;;18.27;11.68;;;;;;;21.71;62.60;98994.23;4459897;78;21047;-82
2021/07/23 18:34:57;;;;;;;;;;;;;;;21.65;63.12;98993.25;4494421;78;21035;-81
2021/07/23 18:40:59;;;;;;;16.07;11.80;;;;;;;21.55;64.43;98997.16;4471045;78;20113;-82
2021/07/23 18:47:05;;;;;;;20.45;11.90;;;;;;;21.43;64.33;98994.58;4470220;78;21006;-82
2021/07/23 18:53:07;;;;;;;20.90;12.60;;;;;;;21.30;64.98;98993.02;4441238;78;21023;-82
2021/07/23 18:59:08;;;;;;;19.23;11.60;;;;;;;21.14;66.26;99000.87;4428136;78;21024;-82
2021/07/23 19:05:10;;;;;;;19.67;11.78;;;;;;;21.00;67.28;99009.66;4417450;79;21041;-82
2021/07/23 19:11:33;;;;;;;17.45;10.95;;;;;;;20.80;67.79;99014.61;4418187;79;20949;-82
2021/07/23 19:17:45;;;;;;;15.48;10.58;;;;;;;20.55;68.13;99022.89;4417204;79;21123;-82
2021/07/23 19:23:46;;;;;;;17.20;10.28;;;;;;;20.40;69.15;99023.14;4429252;79;20964;-82
2021/07/23 19:29:49;;;;;;;24.80;16.55;;;;;;;20.25;70.13;99024.73;4479730;79;20995;-81
2021/07/23 19:35:50;;;;;;;29.20;16.85;;;;;;;20.13;70.63;99030.42;4408644;79;21926;-82
2021/07/23 19:41:51;;;;;;;23.87;14.90;;;;;;;20.13;70.83;99028.22;4408187;79;20997;-82
2021/07/23 19:47:54;;;;;;;19.85;14.07;;;;;;;20.11;71.02;99033.42;4419485;79;20988;-81
2021/07/23 19:53:59;;;;;;;24.43;13.75;;;;;;;20.06;71.34;99031.20;4425501;79;21074;-82
2021/07/23 19:59:59;;;;;;;19.90;13.05;;;;;;;20.00;71.85;99032.31;4498523;79;21000;-82
2021/07/23 20:06:01;;;;;;;14.98;11.18;;;;;;;19.98;72.32;99035.38;4447072;78;21547;-82
2021/07/23 20:12:03;;;;;;;17.48;12.35;;;;;;;19.85;72.37;99040.06;4444738;78;21097;-82
2021/07/23 20:18:05;;;;;;;17.05;11.60;;;;;;;19.88;72.83;99041.97;4442830;78;21066;-81
2021/07/23 20:24:07;;;;;;;22.37;12.98;;;;;;;19.71;73.06;99036.27;4446612;78;21129;-82
2021/07/23 20:30:10;;;;;;;17.12;12.10;;;;;;;19.66;73.45;99039.55;4448530;79;21532;-82
2021/07/23 20:36:13;;;;;;;22.17;11.68;;;;;;;19.71;73.86;99048.76;4456409;79;20967;-82
2021/07/23 20:42:14;;;;;;;18.60;12.90;;;;;;;19.70;74.00;99048.59;4463491;78;21062;-82
2021/07/23 20:48:18;;;;;;;21.77;12.93;;;;;;;19.57;74.50;99042.95;4452477;79;21026;-82
2021/07/23 20:54:20;;;;;;;20.97;12.85;;;;;;;19.44;74.83;99044.05;4447002;79;21063;-81
2021/07/23 21:00:21;;;;;;;20.82;13.38;;;;;;;19.36;75.29;99053.16;4424953;79;21004;-80
2021/07/23 21:06:26;;;;;;;20.60;13.50;;;;;;;19.28;75.31;99047.59;4416116;79;21578;-81
2021/07/23 21:12:25;;;;;;;17.27;12.80;;;;;;;19.20;75.74;99055.87;4431963;79;21004;-84
2021/07/23 21:18:27;;;;;;;20.17;13.70;;;;;;;19.07;76.40;99059.75;4427076;79;21067;-81
2021/07/23 21:24:28;;;;;;;19.25;13.22;;;;;;;18.94;76.80;99049.13;4420801;79;21044;-82
2021/07/23 21:30:29;;;;;;;17.02;12.75;;;;;;;18.82;77.15;99045.05;4418293;79;21539;-82
2021/07/23 21:36:30;;;;;;;20.08;12.37;;;;;;;18.76;77.72;99051.52;4431846;79;21046;-82
2021/07/23 21:42:32;;;;;;;19.82;13.32;;;;;;;18.74;77.96;99054.72;4422864;79;21519;-82
2021/07/23 21:48:33;;;;;;;19.37;14.65;;;;;;;18.67;78.54;99054.25;4416170;79;21625;-81
2021/07/23 21:54:34;;;;;;;23.12;13.98;;;;;;;18.61;78.51;99055.97;4421364;79;21068;-82
2021/07/23 22:00:37;;;;;;;20.60;13.08;;;;;;;18.51;78.76;99061.73;4426372;79;21031;-82
2021/07/23 22:06:39;;;;;;;20.60;13.55;;;;;;;18.48;79.15;99051.47;4423062;79;21051;-82
2021/07/23 22:12:41;;;;;;;19.70;13.25;;;;;;;18.44;79.22;99055.72;4432407;79;21055;-82
2021/07/23 22:18:43;;;;;;;15.85;12.43;;;;;;;18.43;79.54;99062.44;4422112;79;21061;-82
2021/07/23 22:24:44;;;;;;;18.48;13.35;;;;;;;18.35;79.99;99065.77;4434216;79;21013;-82
2021/07/23 22:30:45;;;;;;;16.90;11.97;;;;;;;18.16;80.09;99060.38;4430493;79;20963;-83
2021/07/23 22:36:50;;;;;;;18.42;11.93;;;;;;;18.10;80.42;99066.82;4415874;79;21031;-82
2021/07/23 22:42:51;;;;;;;14.68;10.72;;;;;;;17.99;80.70;99064.84;4423511;79;21015;-82
2021/07/23 22:48:56;;;;;;;16.55;11.48;;;;;;;18.00;80.97;99060.86;4426690;79;21026;-81
2021/07/23 22:54:57;;;;;;;15.32;10.70;;;;;;;17.99;81.43;99060.69;4429599;79;21471;-81
2021/07/23 23:00:58;;;;;;;18.75;11.95;;;;;;;17.99;81.57;99059.30;4418229;79;21058;-81
2021/07/23 23:07:00;;;;;;;23.30;12.75;;;;;;;17.98;81.86;99062.66;4416557;79;20955;-82
2021/07/23 23:13:02;;;;;;;17.50;11.90;;;;;;;17.88;81.94;99058.70;4426005;79;20996;-84
2021/07/23 23:19:03;;;;;;;19.05;12.50;;;;;;;17.78;82.18;99051.34;4429444;79;21032;-81
2021/07/23 23:25:06;;;;;;;18.57;13.55;;;;;;;17.72;82.47;99046.11;4425039;79;21051;-83
2021/07/23 23:31:07;;;;;;;18.27;13.13;;;;;;;17.61;82.75;99045.50;4422449;79;21017;-82
2021/07/23 23:37:09;;;;;;;20.32;12.05;;;;;;;17.47;82.97;99040.98;4418010;79;21034;-82
2021/07/23 23:43:10;;;;;;;16.20;12.15;;;;;;;17.36;83.24;99042.31;4419387;79;21016;-82
2021/07/23 23:49:12;;;;;;;24.20;12.82;;;;;;;17.30;83.47;99040.64;4421767;79;21072;-82
2021/07/23 23:55:14;;;;;;;21.50;12.37;;;;;;;17.18;84.21;99037.83;4429575;79;21023;-82
